sensor_id;sensor_type;location;lat;lon;timestamp;pressure;altitude;pressure_sealevel;temperature;humidity
56241;BME280;42155;53.096;23.226;2022-12-07T00:00:37;99284.06;;;0.49;79.86
56241;BME280;42155;53.096;23.226;2022-12-07T00:02:37;99300.19;;;0.58;79.36
56241;BME280;42155;53.096;23.226;2022-12-07T00:04:37;99299.50;;;0.54;79.54
56241;BME280;42155;53.096;23.226;2022-12-07T00:06:43;99294.38;;;0.53;79.82
56241;BME280;42155;53.096;23.226;2022-12-07T00:08:44;99296.97;;;0.53;80.17
56241;BME280;42155;53.096;23.226;2022-12-07T00:10:44;99285.84;;;0.49;79.68
56241;BME280;42155;53.096;23.226;2022-12-07T00:12:45;99261.13;;;0.39;80.01
56241;BME280;42155;53.096;23.226;2022-12-07T00:14:46;99285.53;;;0.55;80.02
56241;BME280;42155;53.096;23.226;2022-12-07T00:16:49;99282.00;;;0.56;80.04
56241;BME280;42155;53.096;23.226;2022-12-07T00:18:50;99277.78;;;0.54;79.88
56241;BME280;42155;53.096;23.226;2022-12-07T00:20:50;99264.13;;;0.48;79.38
56241;BME280;42155;53.096;23.226;2022-12-07T00:22:50;99275.03;;;0.57;79.86
56241;BME280;42155;53.096;23.226;2022-12-07T00:24:51;99280.16;;;0.58;79.64
56241;BME280;42155;53.096;23.226;2022-12-07T00:26:51;99277.78;;;0.54;79.60
56241;BME280;42155;53.096;23.226;2022-12-07T00:28:56;99280.38;;;0.54;79.49
56241;BME280;42155;53.096;23.226;2022-12-07T00:31:16;99271.19;;;0.46;79.54
56241;BME280;42155;53.096;23.226;2022-12-07T00:33:16;99276.41;;;0.46;80.14
56241;BME280;42155;53.096;23.226;2022-12-07T00:35:17;99277.25;;;0.47;80.11
56241;BME280;42155;53.096;23.226;2022-12-07T00:37:17;99281.31;;;0.53;79.86
56241;BME280;42155;53.096;23.226;2022-12-07T00:39:17;99245.13;;;0.28;80.00
56241;BME280;42155;53.096;23.226;2022-12-07T00:41:20;99276.09;;;0.53;80.09
56241;BME280;42155;53.096;23.226;2022-12-07T00:43:21;99281.31;;;0.53;79.70
56241;BME280;42155;53.096;23.226;2022-12-07T00:45:21;99273.56;;;0.51;79.59
56241;BME280;42155;53.096;23.226;2022-12-07T00:47:21;99275.16;;;0.54;79.59
56241;BME280;42155;53.096;23.226;2022-12-07T00:49:21;99259.13;;;0.44;79.74
56241;BME280;42155;53.096;23.226;2022-12-07T00:51:24;99255.53;;;0.46;79.78
56241;BME280;42155;53.096;23.226;2022-12-07T00:53:24;99245.22;;;0.43;79.93
56241;BME280;42155;53.096;23.226;2022-12-07T00:55:25;99245.09;;;0.46;80.15
56241;BME280;42155;53.096;23.226;2022-12-07T00:57:25;99243.56;;;0.42;80.31
56241;BME280;42155;53.096;23.226;2022-12-07T00:59:25;99244.91;;;0.49;80.02
56241;BME280;42155;53.096;23.226;2022-12-07T01:01:28;99233.09;;;0.42;79.51
56241;BME280;42155;53.096;23.226;2022-12-07T01:03:28;99231.84;;;0.49;79.51
56241;BME280;42155;53.096;23.226;2022-12-07T01:05:28;99234.47;;;0.49;79.66
56241;BME280;42155;53.096;23.226;2022-12-07T01:07:29;99214.22;;;0.37;79.81
56241;BME280;42155;53.096;23.226;2022-12-07T01:09:29;99222.34;;;0.48;80.17
56241;BME280;42155;53.096;23.226;2022-12-07T01:11:30;99227.41;;;0.52;79.33
56241;BME280;42155;53.096;23.226;2022-12-07T01:13:31;99195.88;;;0.39;79.93
56241;BME280;42155;53.096;23.226;2022-12-07T01:15:31;99240.38;;;0.53;79.48
56241;BME280;42155;53.096;23.226;2022-12-07T01:17:32;99230.78;;;0.54;79.44
56241;BME280;42155;53.096;23.226;2022-12-07T01:19:32;99222.50;;;0.45;80.02
56241;BME280;42155;53.096;23.226;2022-12-07T01:21:35;99216.97;;;0.52;79.63
56241;BME280;42155;53.096;23.226;2022-12-07T01:23:36;99215.22;;;0.52;80.24
56241;BME280;42155;53.096;23.226;2022-12-07T01:25:36;99210.97;;;0.49;79.75
56241;BME280;42155;53.096;23.226;2022-12-07T01:27:37;99211.75;;;0.52;80.18
56241;BME280;42155;53.096;23.226;2022-12-07T01:29:37;99206.69;;;0.48;79.96
56241;BME280;42155;53.096;23.226;2022-12-07T01:31:38;99210.00;;;0.52;80.08
56241;BME280;42155;53.096;23.226;2022-12-07T01:33:39;99184.59;;;0.38;79.63
56241;BME280;42155;53.096;23.226;2022-12-07T01:35:39;99199.78;;;0.47;79.92
56241;BME280;42155;53.096;23.226;2022-12-07T01:37:39;99194.84;;;0.41;79.76
56241;BME280;42155;53.096;23.226;2022-12-07T01:39:40;99199.00;;;0.45;79.63
56241;BME280;42155;53.096;23.226;2022-12-07T01:41:41;99159.25;;;0.23;80.04
56241;BME280;42155;53.096;23.226;2022-12-07T01:44:12;99195.63;;;0.43;80.15
56241;BME280;42155;53.096;23.226;2022-12-07T01:46:13;99202.06;;;0.54;79.71
56241;BME280;42155;53.096;23.226;2022-12-07T01:48:16;99197.16;;;0.47;79.93
56241;BME280;42155;53.096;23.226;2022-12-07T01:50:18;99208.22;;;0.53;79.65
56241;BME280;42155;53.096;23.226;2022-12-07T01:52:25;99179.19;;;0.41;79.45
56241;BME280;42155;53.096;23.226;2022-12-07T01:54:28;99190.69;;;0.55;79.27
56241;BME280;42155;53.096;23.226;2022-12-07T01:56:29;99181.50;;;0.47;79.75
56241;BME280;42155;53.096;23.226;2022-12-07T01:58:29;99185.66;;;0.52;79.58
56241;BME280;42155;53.096;23.226;2022-12-07T02:00:30;99200.28;;;0.54;79.96
56241;BME280;42155;53.096;23.226;2022-12-07T02:02:36;99159.41;;;0.37;79.93
56241;BME280;42155;53.096;23.226;2022-12-07T02:04:38;99181.97;;;0.56;79.76
56241;BME280;42155;53.096;23.226;2022-12-07T02:06:40;99169.31;;;0.48;79.92
56241;BME280;42155;53.096;23.226;2022-12-07T02:08:42;99154.63;;;0.45;79.75
56241;BME280;42155;53.096;23.226;2022-12-07T02:10:42;99167.44;;;0.50;79.82
56241;BME280;42155;53.096;23.226;2022-12-07T02:12:44;99181.78;;;0.59;79.71
56241;BME280;42155;53.096;23.226;2022-12-07T02:14:46;99153.09;;;0.41;79.60
56241;BME280;42155;53.096;23.226;2022-12-07T02:19:34;99183.88;;;0.52;80.03
56241;BME280;42155;53.096;23.226;2022-12-07T02:31:18;99160.38;;;0.52;79.66
56241;BME280;42155;53.096;23.226;2022-12-07T02:33:32;99127.31;;;0.35;79.83
56241;BME280;42155;53.096;23.226;2022-12-07T02:35:40;99149.41;;;0.45;79.62
56241;BME280;42155;53.096;23.226;2022-12-07T02:37:53;99147.56;;;0.47;79.95
56241;BME280;42155;53.096;23.226;2022-12-07T02:40:09;99155.91;;;0.54;79.68
56241;BME280;42155;53.096;23.226;2022-12-07T02:42:16;99151.53;;;0.55;79.83
56241;BME280;42155;53.096;23.226;2022-12-07T02:44:20;99149.72;;;0.57;79.62
56241;BME280;42155;53.096;23.226;2022-12-07T02:46:35;99152.31;;;0.57;80.30
56241;BME280;42155;53.096;23.226;2022-12-07T02:48:38;99141.03;;;0.56;80.05
56241;BME280;42155;53.096;23.226;2022-12-07T02:50:44;99141.88;;;0.57;80.23
56241;BME280;42155;53.096;23.226;2022-12-07T02:52:45;99139.25;;;0.57;79.84
56241;BME280;42155;53.096;23.226;2022-12-07T02:54:45;99133.84;;;0.60;79.67
56241;BME280;42155;53.096;23.226;2022-12-07T02:59:14;99127.56;;;0.64;80.01
56241;BME280;42155;53.096;23.226;2022-12-07T03:01:28;99126.81;;;0.62;80.30
56241;BME280;42155;53.096;23.226;2022-12-07T03:03:30;99107.50;;;0.48;79.99
56241;BME280;42155;53.096;23.226;2022-12-07T03:12:12;99113.41;;;0.68;80.52
56241;BME280;42155;53.096;23.226;2022-12-07T03:14:23;99083.16;;;0.48;80.29
56241;BME280;42155;53.096;23.226;2022-12-07T03:16:27;99118.56;;;0.69;79.87
56241;BME280;42155;53.096;23.226;2022-12-07T03:18:34;99112.56;;;0.67;80.08
56241;BME280;42155;53.096;23.226;2022-12-07T03:20:37;99087.19;;;0.54;79.99
56241;BME280;42155;53.096;23.226;2022-12-07T03:22:41;99081.22;;;0.52;80.43
56241;BME280;42155;53.096;23.226;2022-12-07T03:24:49;99081.97;;;0.54;80.23
56241;BME280;42155;53.096;23.226;2022-12-07T03:26:56;99095.06;;;0.69;80.44
56241;BME280;42155;53.096;23.226;2022-12-07T03:29:04;99088.81;;;0.72;80.31
56241;BME280;42155;53.096;23.226;2022-12-07T03:31:17;99089.66;;;0.72;80.67
56241;BME280;42155;53.096;23.226;2022-12-07T03:33:24;99081.78;;;0.74;80.21
56241;BME280;42155;53.096;23.226;2022-12-07T03:35:40;99090.50;;;0.73;80.12
56241;BME280;42155;53.096;23.226;2022-12-07T03:37:54;99089.50;;;0.75;80.36
56241;BME280;42155;53.096;23.226;2022-12-07T03:40:07;99071.47;;;0.71;80.45
56241;BME280;42155;53.096;23.226;2022-12-07T03:42:12;99049.31;;;0.62;80.08
56241;BME280;42155;53.096;23.226;2022-12-07T03:44:14;99069.47;;;0.76;80.24
56241;BME280;42155;53.096;23.226;2022-12-07T03:53:23;99059.50;;;0.83;80.41
56241;BME280;42155;53.096;23.226;2022-12-07T03:55:29;99066.25;;;0.87;80.54
56241;BME280;42155;53.096;23.226;2022-12-07T03:57:31;99056.63;;;0.87;80.63
56241;BME280;42155;53.096;23.226;2022-12-07T03:59:33;99042.50;;;0.75;80.26
56241;BME280;42155;53.096;23.226;2022-12-07T04:01:34;99063.56;;;0.88;80.22
56241;BME280;42155;53.096;23.226;2022-12-07T04:03:34;99054.97;;;0.86;80.10
56241;BME280;42155;53.096;23.226;2022-12-07T04:05:35;99061.69;;;0.90;79.90
56241;BME280;42155;53.096;23.226;2022-12-07T04:07:35;99055.78;;;0.87;80.44
56241;BME280;42155;53.096;23.226;2022-12-07T04:09:35;99053.38;;;0.84;80.46
56241;BME280;42155;53.096;23.226;2022-12-07T04:11:36;99054.97;;;0.86;80.27
56241;BME280;42155;53.096;23.226;2022-12-07T04:13:36;99031.38;;;0.72;80.57
56241;BME280;42155;53.096;23.226;2022-12-07T04:15:36;99043.00;;;0.82;80.65
56241;BME280;42155;53.096;23.226;2022-12-07T04:17:37;99053.13;;;0.88;80.45
56241;BME280;42155;53.096;23.226;2022-12-07T04:19:37;99048.63;;;0.90;80.56
56241;BME280;42155;53.096;23.226;2022-12-07T04:21:38;99039.19;;;0.88;80.31
56241;BME280;42155;53.096;23.226;2022-12-07T04:23:38;99029.63;;;0.88;80.85
56241;BME280;42155;53.096;23.226;2022-12-07T04:25:38;99028.75;;;0.88;80.01
56241;BME280;42155;53.096;23.226;2022-12-07T04:27:39;99038.28;;;0.89;80.31
56241;BME280;42155;53.096;23.226;2022-12-07T04:29:39;99004.16;;;0.76;80.53
56241;BME280;42155;53.096;23.226;2022-12-07T04:31:39;99035.41;;;0.93;80.39
56241;BME280;42155;53.096;23.226;2022-12-07T04:33:40;99023.25;;;0.92;80.13
56241;BME280;42155;53.096;23.226;2022-12-07T04:35:42;99020.75;;;0.91;80.46
56241;BME280;42155;53.096;23.226;2022-12-07T04:37:42;99024.19;;;0.91;80.46
56241;BME280;42155;53.096;23.226;2022-12-07T04:39:43;98998.94;;;0.76;80.49
56241;BME280;42155;53.096;23.226;2022-12-07T04:41:43;99008.19;;;0.82;80.50
56241;BME280;42155;53.096;23.226;2022-12-07T04:43:44;98997.84;;;0.80;81.30
56241;BME280;42155;53.096;23.226;2022-12-07T04:45:48;99018.41;;;0.86;80.68
56241;BME280;42155;53.096;23.226;2022-12-07T04:47:48;98991.94;;;0.76;80.78
56241;BME280;42155;53.096;23.226;2022-12-07T04:49:48;98999.28;;;0.86;80.82
56241;BME280;42155;53.096;23.226;2022-12-07T04:51:49;99008.53;;;0.91;81.12
56241;BME280;42155;53.096;23.226;2022-12-07T04:53:49;98982.19;;;0.80;81.07
56241;BME280;42155;53.096;23.226;2022-12-07T04:55:50;98998.84;;;0.93;81.18
56241;BME280;42155;53.096;23.226;2022-12-07T04:57:50;98986.22;;;0.86;81.08
56241;BME280;42155;53.096;23.226;2022-12-07T04:59:50;98963.97;;;0.79;80.98
56241;BME280;42155;53.096;23.226;2022-12-07T05:01:51;98996.03;;;0.96;80.98
56241;BME280;42155;53.096;23.226;2022-12-07T05:03:51;98963.97;;;0.79;81.14
56241;BME280;42155;53.096;23.226;2022-12-07T05:05:52;98990.06;;;0.94;81.25
56241;BME280;42155;53.096;23.226;2022-12-07T05:07:53;98968.94;;;0.83;81.26
56241;BME280;42155;53.096;23.226;2022-12-07T05:09:53;98998.41;;;1.01;81.25
56241;BME280;42155;53.096;23.226;2022-12-07T05:11:54;98991.41;;;1.01;80.72
56241;BME280;42155;53.096;23.226;2022-12-07T05:13:54;98978.53;;;0.98;81.17
56241;BME280;42155;53.096;23.226;2022-12-07T05:15:54;98986.16;;;1.01;81.14
56241;BME280;42155;53.096;23.226;2022-12-07T05:17:55;98965.41;;;0.84;81.50
56241;BME280;42155;53.096;23.226;2022-12-07T05:19:55;98971.63;;;0.97;81.25
56241;BME280;42155;53.096;23.226;2022-12-07T05:21:55;98982.81;;;0.99;80.78
56241;BME280;42155;53.096;23.226;2022-12-07T05:23:56;98975.56;;;1.05;81.28
56241;BME280;42155;53.096;23.226;2022-12-07T05:25:56;98974.03;;;1.00;81.63
56241;BME280;42155;53.096;23.226;2022-12-07T05:27:56;98979.84;;;1.06;81.19
56241;BME280;42155;53.096;23.226;2022-12-07T05:29:57;98974.03;;;1.00;81.18
56241;BME280;42155;53.096;23.226;2022-12-07T05:31:57;98957.63;;;0.98;81.10
56241;BME280;42155;53.096;23.226;2022-12-07T05:33:58;98962.75;;;1.00;81.09
56241;BME280;42155;53.096;23.226;2022-12-07T05:35:58;98940.44;;;0.94;81.31
56241;BME280;42155;53.096;23.226;2022-12-07T05:37:58;98968.50;;;1.07;81.48
56241;BME280;42155;53.096;23.226;2022-12-07T05:39:59;98973.34;;;1.13;81.29
56241;BME280;42155;53.096;23.226;2022-12-07T05:41:59;98968.97;;;1.13;81.40
56241;BME280;42155;53.096;23.226;2022-12-07T05:43:59;98943.81;;;0.96;81.24
56241;BME280;42155;53.096;23.226;2022-12-07T05:46:00;98969.97;;;1.11;80.78
56241;BME280;42155;53.096;23.226;2022-12-07T05:48:00;98973.19;;;1.16;80.82
56241;BME280;42155;53.096;23.226;2022-12-07T05:50:00;98973.34;;;1.13;80.79
56241;BME280;42155;53.096;23.226;2022-12-07T05:52:01;98972.31;;;1.15;81.57
56241;BME280;42155;53.096;23.226;2022-12-07T05:54:02;98961.28;;;1.10;81.38
56241;BME280;42155;53.096;23.226;2022-12-07T05:56:02;98956.34;;;1.06;81.24
56241;BME280;42155;53.096;23.226;2022-12-07T05:58:02;98958.22;;;1.04;81.21
56241;BME280;42155;53.096;23.226;2022-12-07T06:00:03;98966.75;;;1.21;81.44
56241;BME280;42155;53.096;23.226;2022-12-07T06:02:10;98964.22;;;1.20;81.19
56241;BME280;42155;53.096;23.226;2022-12-07T06:04:11;98961.97;;;1.14;81.16
56241;BME280;42155;53.096;23.226;2022-12-07T06:06:11;98963.94;;;1.24;81.23
56241;BME280;42155;53.096;23.226;2022-12-07T06:08:11;98963.03;;;1.25;80.88
56241;BME280;42155;53.096;23.226;2022-12-07T06:10:12;98941.81;;;1.16;80.97
56241;BME280;42155;53.096;23.226;2022-12-07T06:12:13;98965.56;;;1.27;81.10
56241;BME280;42155;53.096;23.226;2022-12-07T06:14:13;98960.50;;;1.24;81.07
56241;BME280;42155;53.096;23.226;2022-12-07T06:16:13;98967.06;;;1.31;80.96
56241;BME280;42155;53.096;23.226;2022-12-07T06:18:14;98966.22;;;1.31;80.68
56241;BME280;42155;53.096;23.226;2022-12-07T06:20:14;98942.31;;;1.22;81.21
56241;BME280;42155;53.096;23.226;2022-12-07T06:22:14;98964.53;;;1.30;81.12
56241;BME280;42155;53.096;23.226;2022-12-07T06:24:16;98938.75;;;1.23;81.15
56241;BME280;42155;53.096;23.226;2022-12-07T06:26:16;98934.34;;;1.24;81.14
56241;BME280;42155;53.096;23.226;2022-12-07T06:28:16;98955.28;;;1.38;80.82
56241;BME280;42155;53.096;23.226;2022-12-07T06:30:17;98948.59;;;1.34;81.29
56241;BME280;42155;53.096;23.226;2022-12-07T06:32:17;98952.88;;;1.35;80.91
56241;BME280;42155;53.096;23.226;2022-12-07T06:34:20;98946.81;;;1.35;81.54
56241;BME280;42155;53.096;23.226;2022-12-07T06:36:21;98959.88;;;1.35;81.68
56241;BME280;42155;53.096;23.226;2022-12-07T06:38:21;98945.97;;;1.34;81.39
56241;BME280;42155;53.096;23.226;2022-12-07T06:40:22;98945.22;;;1.32;81.12
56241;BME280;42155;53.096;23.226;2022-12-07T06:42:22;98948.41;;;1.37;81.06
56241;BME280;42155;53.096;23.226;2022-12-07T06:44:22;98944.09;;;1.36;81.20
56241;BME280;42155;53.096;23.226;2022-12-07T06:46:23;98910.66;;;1.13;81.69
56241;BME280;42155;53.096;23.226;2022-12-07T06:48:24;98945.97;;;1.34;81.63
56241;BME280;42155;53.096;23.226;2022-12-07T06:50:24;98941.38;;;1.38;81.69
56241;BME280;42155;53.096;23.226;2022-12-07T06:52:25;98924.56;;;1.27;81.47
56241;BME280;42155;53.096;23.226;2022-12-07T06:54:25;98920.69;;;1.35;81.50
56241;BME280;42155;53.096;23.226;2022-12-07T06:56:25;98944.28;;;1.47;81.73
56241;BME280;42155;53.096;23.226;2022-12-07T06:58:26;98944.28;;;1.47;81.10
56241;BME280;42155;53.096;23.226;2022-12-07T07:00:26;98928.03;;;1.42;81.64
56241;BME280;42155;53.096;23.226;2022-12-07T07:02:26;98936.66;;;1.44;81.30
56241;BME280;42155;53.096;23.226;2022-12-07T07:04:27;98938.72;;;1.53;81.82
56241;BME280;42155;53.096;23.226;2022-12-07T07:06:27;98937.59;;;1.58;81.68
56241;BME280;42155;53.096;23.226;2022-12-07T07:08:27;98935.00;;;1.58;81.26
56241;BME280;42155;53.096;23.226;2022-12-07T07:10:28;98928.91;;;1.57;81.40
56241;BME280;42155;53.096;23.226;2022-12-07T07:12:28;98926.94;;;1.61;81.71
56241;BME280;42155;53.096;23.226;2022-12-07T07:14:29;98930.31;;;1.63;81.21
56241;BME280;42155;53.096;23.226;2022-12-07T07:16:30;98919.88;;;1.63;81.46
56241;BME280;42155;53.096;23.226;2022-12-07T07:18:30;98903.97;;;1.51;81.75
56241;BME280;42155;53.096;23.226;2022-12-07T07:20:30;98924.06;;;1.65;81.48
56241;BME280;42155;53.096;23.226;2022-12-07T07:22:31;98893.78;;;1.47;81.30
56241;BME280;42155;53.096;23.226;2022-12-07T07:24:31;98919.88;;;1.63;81.18
56241;BME280;42155;53.096;23.226;2022-12-07T07:26:31;98919.88;;;1.63;81.28
56241;BME280;42155;53.096;23.226;2022-12-07T07:28:32;98913.88;;;1.61;81.17
56241;BME280;42155;53.096;23.226;2022-12-07T07:30:32;98922.94;;;1.69;81.70
56241;BME280;42155;53.096;23.226;2022-12-07T07:32:33;98901.00;;;1.58;81.39
56241;BME280;42155;53.096;23.226;2022-12-07T07:34:33;98921.91;;;1.72;81.47
56241;BME280;42155;53.096;23.226;2022-12-07T07:36:34;98920.97;;;1.73;81.18
56241;BME280;42155;53.096;23.226;2022-12-07T07:38:34;98882.78;;;1.56;81.18
56241;BME280;42155;53.096;23.226;2022-12-07T07:40:35;98920.22;;;1.71;81.33
56241;BME280;42155;53.096;23.226;2022-12-07T07:42:35;98899.84;;;1.62;81.57
56241;BME280;42155;53.096;23.226;2022-12-07T07:44:36;98918.47;;;1.71;81.35
56241;BME280;42155;53.096;23.226;2022-12-07T07:46:36;98917.44;;;1.74;81.69
56241;BME280;42155;53.096;23.226;2022-12-07T07:48:36;98917.25;;;1.77;81.49
56241;BME280;42155;53.096;23.226;2022-12-07T07:50:37;98914.41;;;1.80;81.36
56241;BME280;42155;53.096;23.226;2022-12-07T07:52:37;98919.75;;;1.78;81.50
56241;BME280;42155;53.096;23.226;2022-12-07T07:54:37;98903.78;;;1.69;81.40
56241;BME280;42155;53.096;23.226;2022-12-07T07:56:38;98912.00;;;1.77;81.79
56241;BME280;42155;53.096;23.226;2022-12-07T07:58:38;98901.91;;;1.71;81.60
56241;BME280;42155;53.096;23.226;2022-12-07T08:00:39;98894.44;;;1.65;81.29
56241;BME280;42155;53.096;23.226;2022-12-07T08:02:40;98915.38;;;1.79;81.15
56241;BME280;42155;53.096;23.226;2022-12-07T08:04:40;98925.53;;;1.84;81.56
56241;BME280;42155;53.096;23.226;2022-12-07T08:06:41;98915.66;;;1.74;81.54
56241;BME280;42155;53.096;23.226;2022-12-07T08:08:41;98912.47;;;1.84;81.54
56241;BME280;42155;53.096;23.226;2022-12-07T08:10:42;98916.69;;;1.86;80.83
56241;BME280;42155;53.096;23.226;2022-12-07T08:12:42;98920.03;;;1.88;81.08
56241;BME280;42155;53.096;23.226;2022-12-07T08:14:43;98923.59;;;1.87;80.87
56241;BME280;42155;53.096;23.226;2022-12-07T08:16:43;98915.56;;;1.90;81.31
56241;BME280;42155;53.096;23.226;2022-12-07T08:18:43;98926.66;;;1.94;80.78
56241;BME280;42155;53.096;23.226;2022-12-07T08:20:44;98926.59;;;1.95;81.37
56241;BME280;42155;53.096;23.226;2022-12-07T08:22:44;98907.91;;;1.87;81.28
56241;BME280;42155;53.096;23.226;2022-12-07T08:24:45;98916.28;;;1.92;81.18
56241;BME280;42155;53.096;23.226;2022-12-07T08:26:45;98901.56;;;1.77;81.17
56241;BME280;42155;53.096;23.226;2022-12-07T08:28:45;98920.59;;;1.93;81.12
56241;BME280;42155;53.096;23.226;2022-12-07T08:30:46;98922.19;;;1.96;81.63
56241;BME280;42155;53.096;23.226;2022-12-07T08:32:47;98918.63;;;1.97;80.79
56241;BME280;42155;53.096;23.226;2022-12-07T08:34:47;98920.31;;;1.98;81.19
56241;BME280;42155;53.096;23.226;2022-12-07T08:36:48;98913.22;;;2.00;80.74
56241;BME280;42155;53.096;23.226;2022-12-07T08:38:48;98908.16;;;1.97;80.67
56241;BME280;42155;53.096;23.226;2022-12-07T08:40:55;98915.91;;;1.98;80.94
56241;BME280;42155;53.096;23.226;2022-12-07T08:42:56;98906.75;;;2.06;80.62
56241;BME280;42155;53.096;23.226;2022-12-07T08:44:57;98904.88;;;2.08;81.16
56241;BME280;42155;53.096;23.226;2022-12-07T08:47:02;98911.81;;;2.09;81.14
56241;BME280;42155;53.096;23.226;2022-12-07T08:49:12;98874.63;;;1.89;80.79
56241;BME280;42155;53.096;23.226;2022-12-07T08:51:13;98869.09;;;1.94;80.44
56241;BME280;42155;53.096;23.226;2022-12-07T08:53:13;98889.38;;;2.04;80.70
56241;BME280;42155;53.096;23.226;2022-12-07T08:55:14;98907.13;;;2.14;80.81
56241;BME280;42155;53.096;23.226;2022-12-07T08:57:14;98885.63;;;2.09;80.67
56241;BME280;42155;53.096;23.226;2022-12-07T08:59:17;98896.72;;;2.12;80.52
56241;BME280;42155;53.096;23.226;2022-12-07T09:01:18;98888.25;;;2.09;80.34
56241;BME280;42155;53.096;23.226;2022-12-07T09:03:18;98875.75;;;1.99;80.42
56241;BME280;42155;53.096;23.226;2022-12-07T09:05:18;98886.22;;;1.99;80.51
56241;BME280;42155;53.096;23.226;2022-12-07T09:07:19;98888.97;;;2.11;80.43
56241;BME280;42155;53.096;23.226;2022-12-07T09:09:19;98888.03;;;2.12;81.04
56241;BME280;42155;53.096;23.226;2022-12-07T09:11:19;98878.69;;;2.08;80.52
56241;BME280;42155;53.096;23.226;2022-12-07T09:13:20;98883.75;;;2.11;80.63
56241;BME280;42155;53.096;23.226;2022-12-07T09:15:20;98879.47;;;2.10;80.95
56241;BME280;42155;53.096;23.226;2022-12-07T09:17:21;98883.03;;;2.09;80.45
56241;BME280;42155;53.096;23.226;2022-12-07T09:19:21;98862.75;;;1.98;80.50
56241;BME280;42155;53.096;23.226;2022-12-07T09:21:22;98875.16;;;2.09;81.00
56241;BME280;42155;53.096;23.226;2022-12-07T09:23:22;98868.44;;;2.04;80.92
56241;BME280;42155;53.096;23.226;2022-12-07T09:25:22;98866.94;;;2.00;80.69
56241;BME280;42155;53.096;23.226;2022-12-07T09:27:23;98853.50;;;1.92;80.63
56241;BME280;42155;53.096;23.226;2022-12-07T09:29:24;98876.84;;;2.10;81.00
56241;BME280;42155;53.096;23.226;2022-12-07T09:31:25;98864.53;;;1.97;80.53
56241;BME280;42155;53.096;23.226;2022-12-07T09:33:25;98864.22;;;2.02;80.30
56241;BME280;42155;53.096;23.226;2022-12-07T09:35:26;98866.56;;;2.07;80.53
56241;BME280;42155;53.096;23.226;2022-12-07T09:37:26;98867.41;;;2.07;81.13
56241;BME280;42155;53.096;23.226;2022-12-07T09:39:27;98852.09;;;2.01;80.68
56241;BME280;42155;53.096;23.226;2022-12-07T09:41:29;98833.53;;;1.91;81.04
56241;BME280;42155;53.096;23.226;2022-12-07T09:43:30;98858.63;;;2.08;80.70
56241;BME280;42155;53.096;23.226;2022-12-07T09:45:34;98853.28;;;2.10;80.88
56241;BME280;42155;53.096;23.226;2022-12-07T09:47:35;98838.34;;;1.97;80.45
56241;BME280;42155;53.096;23.226;2022-12-07T09:49:35;98847.50;;;2.04;80.77
56241;BME280;42155;53.096;23.226;2022-12-07T09:51:36;98822.50;;;1.86;80.63
56241;BME280;42155;53.096;23.226;2022-12-07T09:53:38;98835.56;;;2.00;80.44
56241;BME280;42155;53.096;23.226;2022-12-07T09:55:40;98863.00;;;2.08;80.93
56241;BME280;42155;53.096;23.226;2022-12-07T09:57:41;98851.25;;;2.00;80.72
56241;BME280;42155;53.096;23.226;2022-12-07T09:59:42;98852.94;;;2.01;80.89
56241;BME280;42155;53.096;23.226;2022-12-07T10:01:44;98854.41;;;2.06;80.51
56241;BME280;42155;53.096;23.226;2022-12-07T10:03:53;98849.06;;;2.07;80.45
56241;BME280;42155;53.096;23.226;2022-12-07T10:05:54;98845.72;;;2.05;80.45
56241;BME280;42155;53.096;23.226;2022-12-07T10:07:55;98849.84;;;2.09;80.74
56241;BME280;42155;53.096;23.226;2022-12-07T10:09:56;98827.81;;;1.99;80.68
56241;BME280;42155;53.096;23.226;2022-12-07T10:12:08;98847.28;;;2.08;80.96
56241;BME280;42155;53.096;23.226;2022-12-07T10:14:13;98822.22;;;1.91;80.70
56241;BME280;42155;53.096;23.226;2022-12-07T10:16:37;98847.28;;;2.08;80.37
56241;BME280;42155;53.096;23.226;2022-12-07T10:18:41;98843.00;;;2.07;80.41
56241;BME280;42155;53.096;23.226;2022-12-07T10:20:41;98837.69;;;2.08;80.40
56241;BME280;42155;53.096;23.226;2022-12-07T10:25:08;98842.53;;;2.14;80.35
56241;BME280;42155;53.096;23.226;2022-12-07T10:29:34;98845.03;;;2.16;80.66
56241;BME280;42155;53.096;23.226;2022-12-07T10:31:39;98839.16;;;2.12;80.54
56241;BME280;42155;53.096;23.226;2022-12-07T10:34:12;98839.06;;;2.14;80.56
56241;BME280;42155;53.096;23.226;2022-12-07T10:38:28;98829.72;;;2.10;80.73
56241;BME280;42155;53.096;23.226;2022-12-07T10:40:32;98832.72;;;2.18;79.95
56241;BME280;42155;53.096;23.226;2022-12-07T10:42:33;98826.81;;;2.14;80.70
56241;BME280;42155;53.096;23.226;2022-12-07T10:44:33;98823.25;;;2.15;79.95
56241;BME280;42155;53.096;23.226;2022-12-07T10:47:14;98784.09;;;1.87;80.43
56241;BME280;42155;53.096;23.226;2022-12-07T10:52:03;98817.59;;;2.09;80.52
56241;BME280;42155;53.096;23.226;2022-12-07T10:56:39;98815.06;;;2.07;80.16
56241;BME280;42155;53.096;23.226;2022-12-07T11:14:16;98813.63;;;2.16;80.60
56241;BME280;42155;53.096;23.226;2022-12-07T11:21:24;98803.81;;;2.19;80.28
56241;BME280;42155;53.096;23.226;2022-12-07T11:26:00;98806.00;;;2.13;80.24
56241;BME280;42155;53.096;23.226;2022-12-07T11:30:28;98763.81;;;1.90;80.43
56241;BME280;42155;53.096;23.226;2022-12-07T11:34:55;98792.91;;;2.13;80.64
56241;BME280;42155;53.096;23.226;2022-12-07T11:36:59;98784.19;;;2.12;80.35
56241;BME280;42155;53.096;23.226;2022-12-07T11:39:14;98774.31;;;2.03;80.22
56241;BME280;42155;53.096;23.226;2022-12-07T11:41:22;98786.72;;;2.14;80.10
56241;BME280;42155;53.096;23.226;2022-12-07T11:43:28;98790.06;;;2.16;79.92
56241;BME280;42155;53.096;23.226;2022-12-07T11:45:34;98764.38;;;1.95;80.32
56241;BME280;42155;53.096;23.226;2022-12-07T11:47:58;98791.03;;;2.15;80.51
56241;BME280;42155;53.096;23.226;2022-12-07T11:52:51;98781.38;;;2.15;80.12
56241;BME280;42155;53.096;23.226;2022-12-07T11:54:53;98785.78;;;2.15;80.59
56241;BME280;42155;53.096;23.226;2022-12-07T11:56:56;98784.84;;;2.16;80.44
56241;BME280;42155;53.096;23.226;2022-12-07T11:59:28;98762.09;;;2.03;80.25